createdAt,value
2018-03-20T00:00:03.699Z,1.80
2018-03-20T00:02:31.967Z,1.90
2018-03-20T00:05:01.029Z,1.90
2018-03-20T00:07:29.358Z,1.90
2018-03-20T00:09:57.611Z,1.90
2018-03-20T00:12:25.905Z,1.80
2018-03-20T00:14:54.207Z,1.80
2018-03-20T00:17:23.262Z,1.80
2018-03-20T00:19:51.555Z,1.80
2018-03-20T00:22:19.824Z,1.70
2018-03-20T00:24:48.147Z,1.70
2018-03-20T00:27:17.147Z,1.60
2018-03-20T00:29:45.420Z,1.60
2018-03-20T00:32:13.696Z,1.60
2018-03-20T00:34:41.956Z,1.50
2018-03-20T00:37:11.020Z,1.40
2018-03-20T00:39:39.350Z,1.30
2018-03-20T00:42:07.660Z,1.30
2018-03-20T00:44:35.952Z,1.30
2018-03-20T00:47:04.264Z,1.20
2018-03-20T00:49:32.557Z,1.20
2018-03-20T00:52:00.815Z,1.10
2018-03-20T00:54:29.876Z,1.00
2018-03-20T00:56:58.170Z,1.00
2018-03-20T00:59:26.440Z,1.00
2018-03-20T01:01:54.691Z,0.90
2018-03-20T01:04:22.993Z,0.80
2018-03-20T01:06:51.292Z,0.80
2018-03-20T01:09:20.345Z,0.60
2018-03-20T01:11:48.586Z,0.60
2018-03-20T01:14:16.883Z,0.60
2018-03-20T01:16:45.177Z,0.60
2018-03-20T01:19:13.486Z,0.60
2018-03-20T01:21:41.754Z,0.50
2018-03-20T01:24:09.997Z,0.50
2018-03-20T01:26:38.286Z,0.50
2018-03-20T01:29:06.583Z,0.40
2018-03-20T01:31:34.832Z,0.40
2018-03-20T01:34:03.157Z,0.40
2018-03-20T01:36:32.202Z,0.30
2018-03-20T01:39:00.517Z,0.30
2018-03-20T01:41:29.552Z,0.20
2018-03-20T01:43:57.871Z,0.20
2018-03-20T01:46:26.166Z,0.10
2018-03-20T01:48:54.452Z,0.00
2018-03-20T01:51:23.455Z,0.00
2018-03-20T01:53:51.759Z,0.00
2018-03-20T01:56:20.062Z,0.00
2018-03-20T01:58:48.316Z,-0.10
2018-03-20T02:01:16.626Z,-0.10
2018-03-20T02:03:44.919Z,-0.20
2018-03-20T02:06:13.250Z,-0.20
2018-03-20T02:08:41.501Z,-0.20
2018-03-20T02:11:09.828Z,-0.20
2018-03-20T02:13:38.082Z,-0.30
2018-03-20T02:16:06.359Z,-0.30
2018-03-20T02:18:34.665Z,-0.30
2018-03-20T02:21:02.913Z,-0.40
2018-03-20T02:23:31.185Z,-0.40
2018-03-20T02:25:59.446Z,-0.40
2018-03-20T02:28:27.803Z,-0.40
2018-03-20T02:30:56.834Z,-0.50
2018-03-20T02:33:25.141Z,-0.50
2018-03-20T02:35:53.404Z,-0.50
2018-03-20T02:38:21.655Z,-0.60
2018-03-20T02:40:49.925Z,-0.60
2018-03-20T02:43:18.167Z,-0.70
2018-03-20T02:45:47.245Z,-0.80
2018-03-20T02:48:15.505Z,-0.90
2018-03-20T02:50:43.818Z,-0.90
2018-03-20T02:53:12.841Z,-0.90
2018-03-20T02:55:41.166Z,-0.90
2018-03-20T02:58:09.465Z,-1.00
2018-03-20T03:00:38.518Z,-1.10
2018-03-20T03:03:06.785Z,-1.10
2018-03-20T03:05:35.841Z,-1.20
2018-03-20T03:08:04.917Z,-1.20
2018-03-20T03:10:33.205Z,-1.20
2018-03-20T03:13:02.279Z,-1.30
2018-03-20T03:15:31.420Z,-1.40
2018-03-20T03:17:59.714Z,-1.40
2018-03-20T03:20:28.040Z,-1.40
2018-03-20T03:22:56.327Z,-1.40
2018-03-20T03:25:24.594Z,-1.50
2018-03-20T03:27:52.849Z,-1.50
2018-03-20T03:30:21.176Z,-1.60
2018-03-20T03:32:49.421Z,-1.60
2018-03-20T03:35:18.518Z,-1.70
2018-03-20T03:37:47.605Z,-1.80
2018-03-20T03:40:15.942Z,-1.80
2018-03-20T03:42:44.173Z,-1.80
2018-03-20T03:45:13.197Z,-1.90
2018-03-20T03:47:41.465Z,-1.90
2018-03-20T03:50:09.775Z,-1.90
2018-03-20T03:52:38.093Z,-1.90
2018-03-20T03:55:06.358Z,-1.90
2018-03-20T03:57:34.634Z,-1.90
2018-03-20T04:00:02.931Z,-2.00
2018-03-20T04:02:31.173Z,-2.00
2018-03-20T04:04:59.495Z,-2.00
2018-03-20T04:07:28.579Z,-2.00
2018-03-20T04:09:57.656Z,-2.00
2018-03-20T04:12:25.904Z,-2.00
2018-03-20T04:14:54.187Z,-2.00
2018-03-20T04:17:22.493Z,-2.00
2018-03-20T04:19:50.768Z,-2.00
2018-03-20T04:22:19.082Z,-2.00
2018-03-20T04:24:47.362Z,-2.00
2018-03-20T04:27:15.624Z,-2.00
2018-03-20T04:29:44.687Z,-2.00
2018-03-20T04:32:12.973Z,-2.10
2018-03-20T04:34:41.289Z,-2.00
2018-03-20T04:37:09.546Z,-2.10
2018-03-20T04:39:38.620Z,-2.10
2018-03-20T04:42:06.892Z,-2.10
2018-03-20T04:44:35.144Z,-2.10
2018-03-20T04:47:03.472Z,-2.10
2018-03-20T04:49:32.506Z,-2.10
2018-03-20T04:52:00.810Z,-2.10
2018-03-20T04:54:29.081Z,-2.10
2018-03-20T04:56:57.335Z,-2.10
2018-03-20T04:59:25.610Z,-2.20
2018-03-20T05:01:53.915Z,-2.20
2018-03-20T05:04:22.216Z,-2.20
2018-03-20T05:06:50.497Z,-2.20
2018-03-20T05:09:19.571Z,-2.20
2018-03-20T05:11:47.848Z,-2.20
2018-03-20T05:14:17.616Z,-2.30
2018-03-20T05:16:45.897Z,-2.30
2018-03-20T05:19:25.925Z,-2.30
2018-03-20T05:21:59.881Z,-2.30
2018-03-20T05:24:28.196Z,-2.30
2018-03-20T05:26:57.234Z,-2.40
2018-03-20T05:29:25.513Z,-2.40
2018-03-20T05:31:53.844Z,-2.40
2018-03-20T05:34:22.894Z,-2.40
2018-03-20T05:36:51.180Z,-2.40
2018-03-20T05:39:19.457Z,-2.40
2018-03-20T05:41:47.788Z,-2.40
2018-03-20T05:44:16.806Z,-2.50
2018-03-20T06:00:04.836Z,-2.60
2018-03-20T06:02:33.098Z,-2.60
2018-03-20T06:05:01.374Z,-2.60
2018-03-20T06:07:29.658Z,-2.50
2018-03-20T06:09:57.986Z,-2.50
2018-03-20T06:12:26.239Z,-2.40
2018-03-20T06:14:54.567Z,-2.40
2018-03-20T06:17:23.592Z,-2.30
2018-03-20T06:19:51.851Z,-2.30
2018-03-20T06:22:20.140Z,-2.30
2018-03-20T06:24:48.398Z,-2.20
2018-03-20T06:27:16.677Z,-2.20
2018-03-20T06:29:44.993Z,-2.20
2018-03-20T06:32:13.341Z,-2.10
2018-03-20T06:34:41.643Z,-2.10
2018-03-20T06:37:09.918Z,-2.00
2018-03-20T06:39:38.200Z,-2.00
2018-03-20T06:42:06.513Z,-2.00
2018-03-20T06:44:34.798Z,-1.90
2018-03-20T06:47:03.066Z,-1.90
2018-03-20T06:49:31.360Z,-1.90
2018-03-20T06:52:00.388Z,-1.80
2018-03-20T06:54:28.695Z,-1.80
2018-03-20T06:56:56.993Z,-1.70
2018-03-20T06:59:26.073Z,-1.60
2018-03-20T07:01:54.392Z,-1.60
2018-03-20T07:04:22.705Z,-1.60
2018-03-20T07:06:50.974Z,-1.50
2018-03-20T07:09:19.241Z,-1.50
2018-03-20T07:11:47.584Z,-1.40
2018-03-20T07:14:16.654Z,-1.30
2018-03-20T07:16:44.941Z,-1.40
2018-03-20T07:19:13.282Z,-1.30
2018-03-20T07:21:41.605Z,-1.20
2018-03-20T07:24:09.911Z,-1.20
2018-03-20T07:26:38.195Z,-1.10
2018-03-20T07:29:06.514Z,-1.10
2018-03-20T07:31:34.780Z,-1.00
2018-03-20T07:34:03.067Z,-1.00
2018-03-20T07:36:31.390Z,-1.00
2018-03-20T07:38:59.709Z,-0.90
2018-03-20T07:41:28.022Z,-0.80
2018-03-20T07:43:57.024Z,-0.70
2018-03-20T07:46:26.056Z,-0.70
2018-03-20T07:48:54.334Z,-0.70
2018-03-20T07:51:22.651Z,-0.60
2018-03-20T07:53:50.913Z,-0.60
2018-03-20T07:56:19.153Z,-0.50
2018-03-20T07:58:47.463Z,-0.40
2018-03-20T08:01:15.733Z,-0.40
2018-03-20T08:03:43.995Z,-0.30
2018-03-20T08:06:12.246Z,-0.30
2018-03-20T08:08:40.527Z,-0.20
2018-03-20T08:11:08.838Z,-0.20
2018-03-20T08:13:37.178Z,-0.20
2018-03-20T08:16:06.236Z,-0.20
2018-03-20T08:18:34.486Z,-0.20
2018-03-20T08:21:02.778Z,-0.10
2018-03-20T08:23:31.083Z,0.00
2018-03-20T08:26:00.138Z,0.30
2018-03-20T08:28:28.414Z,0.30
2018-03-20T08:30:56.693Z,0.30
2018-03-20T08:33:24.940Z,0.50
2018-03-20T08:35:53.180Z,0.60
2018-03-20T08:38:22.267Z,0.90
2018-03-20T08:40:50.564Z,0.80
2018-03-20T08:43:19.607Z,1.10
2018-03-20T08:45:47.847Z,1.00
2018-03-20T08:48:16.179Z,1.10
2018-03-20T08:50:44.507Z,1.20
2018-03-20T08:53:12.803Z,1.30
2018-03-20T08:55:41.112Z,1.40
2018-03-20T08:58:09.406Z,1.50
2018-03-20T09:00:38.466Z,1.60
2018-03-20T09:03:06.736Z,1.60
2018-03-20T09:05:34.990Z,1.70
2018-03-20T09:08:03.389Z,1.80
2018-03-20T09:10:31.686Z,1.80
2018-03-20T09:12:59.957Z,1.90
2018-03-20T09:15:28.248Z,1.90
2018-03-20T09:17:56.527Z,1.90
2018-03-20T09:20:25.185Z,2.00
2018-03-20T09:22:53.476Z,2.00
2018-03-20T09:25:21.783Z,2.00
2018-03-20T09:27:50.814Z,2.00
2018-03-20T09:30:19.119Z,2.00
2018-03-20T09:32:47.446Z,2.10
2018-03-20T09:35:16.540Z,2.10
2018-03-20T09:37:45.571Z,2.10
2018-03-20T09:40:13.861Z,2.00
2018-03-20T09:42:42.131Z,2.10
2018-03-20T09:45:10.449Z,2.20
2018-03-20T09:47:38.754Z,2.40
2018-03-20T09:50:07.022Z,2.50
2018-03-20T09:52:36.092Z,2.70
2018-03-20T09:55:04.373Z,2.70
2018-03-20T09:57:32.624Z,2.80
2018-03-20T10:00:00.874Z,2.90
2018-03-20T10:02:29.140Z,3.00
2018-03-20T10:04:57.412Z,3.00
2018-03-20T10:07:26.447Z,3.20
2018-03-20T10:09:54.703Z,3.20
2018-03-20T10:12:23.017Z,3.30
2018-03-20T10:14:51.279Z,3.30
2018-03-20T10:17:19.580Z,3.50
2018-03-20T10:19:47.838Z,3.70
2018-03-20T10:22:16.157Z,3.90
2018-03-20T10:24:45.239Z,4.40
2018-03-20T10:27:13.492Z,4.40
2018-03-20T10:29:41.821Z,4.70
2018-03-20T10:32:10.111Z,4.80
2018-03-20T10:34:39.117Z,5.20
2018-03-20T10:37:07.424Z,5.20
2018-03-20T10:39:35.681Z,5.30
2018-03-20T10:42:03.962Z,5.30
2018-03-20T10:44:32.206Z,5.30
2018-03-20T10:47:00.496Z,5.50
2018-03-20T10:49:28.868Z,5.70
2018-03-20T10:51:57.988Z,5.90
2018-03-20T10:54:26.293Z,5.90
2018-03-20T10:56:54.561Z,6.00
2018-03-20T10:59:22.879Z,6.00
2018-03-20T11:01:51.126Z,6.10
2018-03-20T11:04:19.395Z,6.30
2018-03-20T11:06:47.707Z,6.50
2018-03-20T11:09:16.031Z,6.60
2018-03-20T11:11:44.291Z,6.80
2018-03-20T11:14:12.525Z,7.00
2018-03-20T11:16:41.536Z,7.20
2018-03-20T11:19:09.790Z,7.30
2018-03-20T11:21:38.801Z,7.40
2018-03-20T11:24:07.044Z,7.40
2018-03-20T11:26:35.343Z,7.40
2018-03-20T11:29:04.347Z,7.40
2018-03-20T11:31:32.675Z,7.40
2018-03-20T11:34:00.971Z,7.50
2018-03-20T11:36:29.235Z,7.40
2018-03-20T11:38:57.540Z,7.40
2018-03-20T11:41:26.635Z,7.20
2018-03-20T11:43:55.666Z,7.30
2018-03-20T11:46:23.925Z,7.30
2018-03-20T11:48:52.243Z,7.40
2018-03-20T11:51:20.505Z,7.30
2018-03-20T11:53:48.857Z,7.30
2018-03-20T11:56:17.156Z,7.10
2018-03-20T11:58:45.494Z,7.10
2018-03-20T12:01:14.557Z,6.90
2018-03-20T12:03:42.870Z,6.90
2018-03-20T12:06:11.950Z,6.60
2018-03-20T12:08:51.062Z,6.60
2018-03-20T12:11:19.357Z,6.60
2018-03-20T12:13:47.656Z,6.60
2018-03-20T12:16:15.928Z,6.50
2018-03-20T12:18:45.018Z,6.40
2018-03-20T12:21:14.116Z,6.40
2018-03-20T12:23:43.190Z,6.40
2018-03-20T12:26:11.491Z,6.40
2018-03-20T12:28:40.509Z,6.20
2018-03-20T12:31:08.746Z,6.20
2018-03-20T12:33:37.002Z,6.10
2018-03-20T12:36:05.294Z,6.00
2018-03-20T12:38:33.594Z,5.80
2018-03-20T12:41:01.924Z,5.70
2018-03-20T12:43:30.172Z,5.50
2018-03-20T12:45:58.470Z,5.30
2018-03-20T12:48:26.796Z,5.20
2018-03-20T12:50:55.056Z,5.20
2018-03-20T12:53:24.102Z,5.00
2018-03-20T12:55:52.376Z,5.00
2018-03-20T12:58:20.670Z,4.90
2018-03-20T13:00:48.999Z,4.80
2018-03-20T13:03:18.048Z,4.70
2018-03-20T13:05:46.581Z,4.70
2018-03-20T13:08:14.855Z,4.70
2018-03-20T13:10:43.882Z,4.50
2018-03-20T13:13:12.222Z,4.50
2018-03-20T13:15:40.504Z,4.40
2018-03-20T13:18:09.696Z,4.40
2018-03-20T13:20:38.026Z,4.40
2018-03-20T13:23:06.329Z,4.30
2018-03-20T13:25:34.639Z,4.30
2018-03-20T13:28:03.711Z,4.20
2018-03-20T13:30:32.753Z,4.20
2018-03-20T13:33:01.018Z,4.10
2018-03-20T13:35:29.292Z,4.10
2018-03-20T13:37:57.554Z,4.10
2018-03-20T13:40:26.128Z,4.10
2018-03-20T13:42:55.218Z,4.10
2018-03-20T13:45:23.497Z,4.10
2018-03-20T13:47:51.838Z,4.10
2018-03-20T13:50:20.154Z,4.10
2018-03-20T13:52:49.448Z,3.90
2018-03-20T13:55:17.511Z,3.90
2018-03-20T13:57:45.749Z,3.90
2018-03-20T14:00:14.053Z,3.90
2018-03-20T14:02:42.669Z,3.90
2018-03-20T14:05:12.508Z,3.90
2018-03-20T14:07:40.909Z,3.90
2018-03-20T14:10:09.224Z,3.90
2018-03-20T14:12:37.505Z,3.80
2018-03-20T14:15:05.757Z,3.80
2018-03-20T14:17:34.052Z,3.80
2018-03-20T14:20:02.294Z,3.80
2018-03-20T14:22:30.631Z,3.70
2018-03-20T14:24:59.678Z,3.70
2018-03-20T14:27:28.075Z,3.70
2018-03-20T14:29:56.336Z,3.70
2018-03-20T14:32:24.604Z,3.60
2018-03-20T14:34:52.862Z,3.60
2018-03-20T14:37:21.101Z,3.70
2018-03-20T14:39:50.148Z,3.60
2018-03-20T14:42:18.430Z,3.60
2018-03-20T14:44:46.692Z,3.60
2018-03-20T14:47:14.987Z,3.50
2018-03-20T14:49:43.255Z,3.50
2018-03-20T14:52:11.559Z,3.50
2018-03-20T14:54:39.810Z,3.50
2018-03-20T14:57:08.061Z,3.50
2018-03-20T14:59:36.363Z,3.40
2018-03-20T15:02:04.614Z,3.40
2018-03-20T15:04:32.927Z,3.40
2018-03-20T15:07:01.254Z,3.40
2018-03-20T15:09:29.502Z,3.40
2018-03-20T15:11:57.822Z,3.50
2018-03-20T15:14:26.094Z,3.40
2018-03-20T15:16:54.333Z,3.40
2018-03-20T15:19:22.652Z,3.40
2018-03-20T15:21:50.948Z,3.40
2018-03-20T15:24:19.202Z,3.40
2018-03-20T15:26:47.518Z,3.40
2018-03-20T15:29:15.809Z,3.40
2018-03-20T15:31:44.393Z,3.30
2018-03-20T15:34:12.678Z,3.30
2018-03-20T15:36:41.738Z,3.30
2018-03-20T15:39:10.019Z,3.20
2018-03-20T15:41:38.319Z,3.30
2018-03-20T15:44:06.567Z,3.30
2018-03-20T15:46:34.846Z,3.20
2018-03-20T15:49:03.143Z,3.30
2018-03-20T15:51:31.516Z,3.20
2018-03-20T15:53:59.818Z,3.20
2018-03-20T15:56:28.860Z,3.20
2018-03-20T15:58:57.122Z,3.20
2018-03-20T16:01:25.392Z,3.20
2018-03-20T16:03:53.697Z,3.30
2018-03-20T16:06:21.977Z,3.20
2018-03-20T16:08:50.262Z,3.30
2018-03-20T16:11:18.560Z,3.20
2018-03-20T16:13:46.863Z,3.20
2018-03-20T16:16:15.921Z,3.20
2018-03-20T16:18:44.203Z,3.20
2018-03-20T16:21:12.504Z,3.20
2018-03-20T16:23:41.516Z,3.20
2018-03-20T16:26:09.854Z,3.20
2018-03-20T16:28:38.159Z,3.20
2018-03-20T16:31:07.284Z,3.20
2018-03-20T16:33:35.561Z,3.20
2018-03-20T16:36:03.858Z,3.20
2018-03-20T16:38:32.161Z,3.20
2018-03-20T16:41:00.430Z,3.20
2018-03-20T16:43:28.701Z,3.20
2018-03-20T16:45:57.039Z,3.20
2018-03-20T16:48:26.076Z,3.10
2018-03-20T16:50:55.166Z,3.10
2018-03-20T16:53:23.422Z,3.10
2018-03-20T16:55:51.684Z,3.10
2018-03-20T16:58:19.992Z,3.20
2018-03-20T17:00:48.339Z,3.10
2018-03-20T17:03:16.599Z,3.10
2018-03-20T17:05:44.916Z,3.10
2018-03-20T17:08:13.203Z,3.10
2018-03-20T17:10:41.463Z,3.10
2018-03-20T17:13:09.740Z,3.10
2018-03-20T17:15:38.027Z,3.10
2018-03-20T17:18:06.357Z,3.10
2018-03-20T17:20:34.635Z,3.10
2018-03-20T17:23:03.967Z,3.10
2018-03-20T17:25:32.236Z,3.10
2018-03-20T17:28:00.518Z,3.00
2018-03-20T17:30:28.818Z,3.00
2018-03-20T17:32:57.102Z,3.10
2018-03-20T17:35:25.353Z,3.10
2018-03-20T17:37:53.656Z,3.10
2018-03-20T17:40:21.949Z,3.00
2018-03-20T17:42:50.273Z,3.00
2018-03-20T17:45:18.539Z,3.10
2018-03-20T17:47:46.818Z,3.10
2018-03-20T17:50:15.100Z,3.00
2018-03-20T17:52:43.426Z,3.00
2018-03-20T17:55:11.723Z,3.00
2018-03-20T17:57:40.060Z,3.00
2018-03-20T18:00:08.373Z,3.00
2018-03-20T18:02:36.702Z,3.00
2018-03-20T18:05:05.057Z,3.00
2018-03-20T18:07:33.356Z,3.00
2018-03-20T18:10:01.677Z,3.00
2018-03-20T18:12:29.987Z,3.00
2018-03-20T18:14:58.306Z,3.10
2018-03-20T18:17:27.315Z,3.10
2018-03-20T18:19:55.580Z,3.00
2018-03-20T18:22:23.879Z,3.00
2018-03-20T18:24:52.160Z,3.10
2018-03-20T18:27:20.466Z,3.10
2018-03-20T18:29:48.706Z,3.10
2018-03-20T18:32:17.060Z,3.10
2018-03-20T18:34:45.339Z,3.10
2018-03-20T18:37:13.610Z,3.10
2018-03-20T18:39:41.913Z,3.10
2018-03-20T18:42:10.164Z,3.10
2018-03-20T18:44:38.425Z,3.10
2018-03-20T18:47:06.762Z,3.10
2018-03-20T18:49:35.084Z,3.10
2018-03-20T18:52:03.319Z,3.10
2018-03-20T18:54:32.372Z,3.20
2018-03-20T18:57:00.687Z,3.20
2018-03-20T18:59:29.695Z,3.20
2018-03-20T19:01:58.728Z,3.20
2018-03-20T19:04:26.969Z,3.10
2018-03-20T19:06:55.988Z,3.20
2018-03-20T19:09:24.259Z,3.20
2018-03-20T19:11:52.600Z,3.20
2018-03-20T19:14:21.596Z,3.10
2018-03-20T19:16:50.656Z,3.10
2018-03-20T19:19:18.926Z,3.10
2018-03-20T19:21:47.235Z,3.10
2018-03-20T19:24:15.481Z,3.10
2018-03-20T19:26:43.722Z,3.20
2018-03-20T19:29:12.037Z,3.20
2018-03-20T19:31:40.296Z,3.20
2018-03-20T19:34:08.607Z,3.20
2018-03-20T19:36:36.882Z,3.20
2018-03-20T19:39:05.273Z,3.10
2018-03-20T19:41:33.578Z,3.10
2018-03-20T19:44:02.656Z,3.10
2018-03-20T19:46:31.742Z,3.10
2018-03-20T19:49:00.048Z,3.10
2018-03-20T19:51:28.357Z,3.10
2018-03-20T19:53:56.641Z,3.20
2018-03-20T19:56:24.928Z,3.20
2018-03-20T19:58:53.234Z,3.20
2018-03-20T20:01:22.284Z,3.20
2018-03-20T20:03:50.618Z,3.20
2018-03-20T20:06:19.643Z,3.20
2018-03-20T20:08:47.934Z,3.20
2018-03-20T20:11:16.187Z,3.20
2018-03-20T20:13:44.518Z,3.20
2018-03-20T20:16:12.759Z,3.20
2018-03-20T20:18:41.049Z,3.20
2018-03-20T20:21:09.354Z,3.20
2018-03-20T20:23:37.604Z,3.20
2018-03-20T20:26:05.875Z,3.20
2018-03-20T20:28:34.172Z,3.20
2018-03-20T20:31:03.991Z,3.20
2018-03-20T20:33:32.239Z,3.20
2018-03-20T20:36:00.565Z,3.30
2018-03-20T20:38:28.854Z,3.20
2018-03-20T20:40:57.210Z,3.30
2018-03-20T20:43:25.528Z,3.20
2018-03-20T20:45:53.793Z,3.20
2018-03-20T20:48:22.082Z,3.20
2018-03-20T20:50:50.342Z,3.30
2018-03-20T20:53:18.669Z,3.30
2018-03-20T20:55:46.905Z,3.30
2018-03-20T20:58:15.162Z,3.20
2018-03-20T21:00:43.463Z,3.20
2018-03-20T21:03:11.765Z,3.20
2018-03-20T21:05:40.026Z,3.20
2018-03-20T21:08:08.331Z,3.20
2018-03-20T21:10:36.715Z,3.20
2018-03-20T21:13:05.260Z,3.20
2018-03-20T21:15:33.512Z,3.10
2018-03-20T21:18:01.783Z,3.10
2018-03-20T21:20:30.854Z,3.00
2018-03-20T21:22:59.118Z,3.00
2018-03-20T21:25:27.408Z,3.00
2018-03-20T21:27:55.722Z,2.90
2018-03-20T21:30:24.094Z,2.90
2018-03-20T21:32:52.422Z,2.80
2018-03-20T21:35:20.681Z,2.80
2018-03-20T21:37:48.979Z,2.80
2018-03-20T21:40:17.292Z,2.80
2018-03-20T21:42:46.338Z,2.80
2018-03-20T21:45:14.595Z,2.70
2018-03-20T21:47:42.838Z,2.70
2018-03-20T21:50:12.670Z,2.70
2018-03-20T21:52:41.004Z,2.70
2018-03-20T21:55:09.302Z,2.60
2018-03-20T21:57:38.403Z,2.50
2018-03-20T22:00:07.428Z,2.40
2018-03-20T22:02:35.773Z,2.40
2018-03-20T22:05:04.802Z,2.30
2018-03-20T22:07:33.038Z,2.30
2018-03-20T22:10:02.148Z,2.20
2018-03-20T22:12:31.198Z,2.10
2018-03-20T22:14:59.510Z,2.10
2018-03-20T22:17:27.774Z,2.20
2018-03-20T22:19:56.067Z,2.10
2018-03-20T22:22:25.138Z,2.10
2018-03-20T22:24:53.381Z,2.10
2018-03-20T22:27:21.648Z,2.10
2018-03-20T22:29:49.944Z,2.00
2018-03-20T22:32:18.235Z,2.00
2018-03-20T22:34:46.518Z,2.00
2018-03-20T22:37:14.802Z,2.00
2018-03-20T22:39:43.109Z,2.00
2018-03-20T22:42:11.423Z,2.00
2018-03-20T22:44:39.697Z,2.00
2018-03-20T22:47:07.935Z,1.90
2018-03-20T22:49:36.208Z,1.90
2018-03-20T22:52:05.274Z,1.80
2018-03-20T22:54:33.577Z,1.80
2018-03-20T22:57:02.641Z,1.80
2018-03-20T22:59:30.960Z,1.70
2018-03-20T23:02:00.010Z,1.70
2018-03-20T23:04:28.298Z,1.60
2018-03-20T23:06:56.607Z,1.60
2018-03-20T23:09:25.663Z,1.60
2018-03-20T23:11:53.933Z,1.60
2018-03-20T23:14:22.235Z,1.60
2018-03-20T23:16:51.280Z,1.50
2018-03-20T23:19:19.572Z,1.40
2018-03-20T23:21:47.866Z,1.40
2018-03-20T23:24:16.108Z,1.40
2018-03-20T23:26:44.406Z,1.30
2018-03-20T23:29:12.691Z,1.30
2018-03-20T23:31:40.958Z,1.30
2018-03-20T23:34:09.245Z,1.30
2018-03-20T23:36:37.557Z,1.30
2018-03-20T23:39:06.650Z,1.20
2018-03-20T23:41:35.672Z,1.20
2018-03-20T23:44:03.976Z,1.20
2018-03-20T23:46:32.209Z,1.20
2018-03-20T23:49:01.240Z,1.20
2018-03-20T23:51:29.544Z,1.10
2018-03-20T23:53:57.878Z,1.10
2018-03-20T23:56:26.171Z,1.10
2018-03-20T23:58:54.465Z,1.00
